sensor_id;sensor_type;location;lat;lon;timestamp;temperature;humidity
18175;DHT22;9212;50.894;16.714;2022-12-18T00:00:47;-4.30;99.90
18175;DHT22;9212;50.894;16.714;2022-12-18T00:03:15;-4.30;99.90
18175;DHT22;9212;50.894;16.714;2022-12-18T00:05:49;-4.20;99.90
18175;DHT22;9212;50.894;16.714;2022-12-18T00:08:16;-4.50;99.90
18175;DHT22;9212;50.894;16.714;2022-12-18T00:10:45;-4.30;99.90
18175;DHT22;9212;50.894;16.714;2022-12-18T00:15:41;-4.20;99.90
18175;DHT22;9212;50.894;16.714;2022-12-18T00:20:36;-4.40;99.90
18175;DHT22;9212;50.894;16.714;2022-12-18T00:23:04;-4.50;99.90
18175;DHT22;9212;50.894;16.714;2022-12-18T00:25:32;-5.40;99.90
18175;DHT22;9212;50.894;16.714;2022-12-18T00:27:59;-3.70;99.90
18175;DHT22;9212;50.894;16.714;2022-12-18T00:30:27;-4.50;99.90
18175;DHT22;9212;50.894;16.714;2022-12-18T00:32:55;-4.50;99.90
18175;DHT22;9212;50.894;16.714;2022-12-18T00:35:22;-4.50;99.90
18175;DHT22;9212;50.894;16.714;2022-12-18T00:37:49;-4.70;99.90
18175;DHT22;9212;50.894;16.714;2022-12-18T00:40:17;-4.50;99.90
18175;DHT22;9212;50.894;16.714;2022-12-18T00:42:44;-4.60;99.90
18175;DHT22;9212;50.894;16.714;2022-12-18T00:45:22;-4.60;99.90
18175;DHT22;9212;50.894;16.714;2022-12-18T00:47:50;-4.70;99.90
18175;DHT22;9212;50.894;16.714;2022-12-18T00:50:19;-4.00;99.90
18175;DHT22;9212;50.894;16.714;2022-12-18T00:55:14;-3.90;99.90
18175;DHT22;9212;50.894;16.714;2022-12-18T00:57:41;-4.30;99.90
18175;DHT22;9212;50.894;16.714;2022-12-18T01:00:11;-4.40;99.90
18175;DHT22;9212;50.894;16.714;2022-12-18T01:02:38;-4.50;99.90
18175;DHT22;9212;50.894;16.714;2022-12-18T01:05:06;-4.60;99.90
18175;DHT22;9212;50.894;16.714;2022-12-18T01:07:34;-3.60;99.90
18175;DHT22;9212;50.894;16.714;2022-12-18T01:10:02;-4.50;99.90
18175;DHT22;9212;50.894;16.714;2022-12-18T01:12:29;-3.80;99.90
18175;DHT22;9212;50.894;16.714;2022-12-18T01:19:50;-3.10;99.90
18175;DHT22;9212;50.894;16.714;2022-12-18T01:24:46;-4.50;99.90
18175;DHT22;9212;50.894;16.714;2022-12-18T01:29:41;-4.60;99.90
18175;DHT22;9212;50.894;16.714;2022-12-18T01:34:35;-4.50;99.90
18175;DHT22;9212;50.894;16.714;2022-12-18T01:39:30;-4.50;99.90
18175;DHT22;9212;50.894;16.714;2022-12-18T01:41:59;-4.40;99.90
18175;DHT22;9212;50.894;16.714;2022-12-18T01:44:55;-4.40;99.90
18175;DHT22;9212;50.894;16.714;2022-12-18T01:47:25;-4.60;99.90
18175;DHT22;9212;50.894;16.714;2022-12-18T01:49:53;-4.50;99.90
18175;DHT22;9212;50.894;16.714;2022-12-18T01:52:21;-4.50;99.90
18175;DHT22;9212;50.894;16.714;2022-12-18T01:54:50;-4.50;99.90
18175;DHT22;9212;50.894;16.714;2022-12-18T01:57:19;-3.60;99.90
18175;DHT22;9212;50.894;16.714;2022-12-18T01:59:50;-4.40;99.90
18175;DHT22;9212;50.894;16.714;2022-12-18T02:02:19;-4.50;99.90
18175;DHT22;9212;50.894;16.714;2022-12-18T02:04:46;-4.60;99.90
18175;DHT22;9212;50.894;16.714;2022-12-18T02:07:20;-4.60;99.90
18175;DHT22;9212;50.894;16.714;2022-12-18T02:09:54;-4.50;99.90
18175;DHT22;9212;50.894;16.714;2022-12-18T02:12:29;-4.60;99.90
18175;DHT22;9212;50.894;16.714;2022-12-18T02:15:02;-4.60;99.90
18175;DHT22;9212;50.894;16.714;2022-12-18T02:17:38;-4.80;99.90
18175;DHT22;9212;50.894;16.714;2022-12-18T02:20:13;-5.40;99.90
18175;DHT22;9212;50.894;16.714;2022-12-18T02:22:54;-4.80;99.90
18175;DHT22;9212;50.894;16.714;2022-12-18T02:25:40;-4.60;99.90
18175;DHT22;9212;50.894;16.714;2022-12-18T02:28:11;-4.50;99.90
18175;DHT22;9212;50.894;16.714;2022-12-18T02:30:40;-4.70;99.90
18175;DHT22;9212;50.894;16.714;2022-12-18T02:33:09;-4.80;99.90
18175;DHT22;9212;50.894;16.714;2022-12-18T02:35:37;-4.60;99.90
18175;DHT22;9212;50.894;16.714;2022-12-18T02:38:06;-3.80;99.90
18175;DHT22;9212;50.894;16.714;2022-12-18T02:40:33;-4.60;99.90
18175;DHT22;9212;50.894;16.714;2022-12-18T02:43:09;-4.90;99.90
18175;DHT22;9212;50.894;16.714;2022-12-18T02:45:46;-4.80;99.90
18175;DHT22;9212;50.894;16.714;2022-12-18T02:48:22;-4.80;99.90
18175;DHT22;9212;50.894;16.714;2022-12-18T02:50:59;-4.80;99.90
18175;DHT22;9212;50.894;16.714;2022-12-18T02:53:33;-4.80;99.90
18175;DHT22;9212;50.894;16.714;2022-12-18T02:56:07;-4.80;99.90
18175;DHT22;9212;50.894;16.714;2022-12-18T02:58:44;-4.60;99.90
18175;DHT22;9212;50.894;16.714;2022-12-18T03:01:19;-4.90;99.90
18175;DHT22;9212;50.894;16.714;2022-12-18T03:03:54;-4.80;99.90
18175;DHT22;9212;50.894;16.714;2022-12-18T03:06:26;-5.40;99.90
18175;DHT22;9212;50.894;16.714;2022-12-18T03:08:58;-4.80;99.90
18175;DHT22;9212;50.894;16.714;2022-12-18T03:11:26;-4.80;99.90
18175;DHT22;9212;50.894;16.714;2022-12-18T03:14:11;-4.80;99.90
18175;DHT22;9212;50.894;16.714;2022-12-18T03:16:41;-4.70;99.90
18175;DHT22;9212;50.894;16.714;2022-12-18T03:19:14;-5.10;99.90
18175;DHT22;9212;50.894;16.714;2022-12-18T03:21:44;-4.90;99.90
18175;DHT22;9212;50.894;16.714;2022-12-18T03:24:12;-4.80;99.90
18175;DHT22;9212;50.894;16.714;2022-12-18T03:26:42;-5.00;99.90
18175;DHT22;9212;50.894;16.714;2022-12-18T03:29:16;-4.80;99.90
18175;DHT22;9212;50.894;16.714;2022-12-18T03:31:48;-4.70;99.90
18175;DHT22;9212;50.894;16.714;2022-12-18T03:34:21;-4.80;99.90
18175;DHT22;9212;50.894;16.714;2022-12-18T03:39:18;-4.40;99.90
18175;DHT22;9212;50.894;16.714;2022-12-18T03:41:49;-4.80;99.90
18175;DHT22;9212;50.894;16.714;2022-12-18T03:44:23;-4.80;99.90
18175;DHT22;9212;50.894;16.714;2022-12-18T03:46:58;-4.80;99.90
18175;DHT22;9212;50.894;16.714;2022-12-18T03:49:32;-4.90;99.90
18175;DHT22;9212;50.894;16.714;2022-12-18T03:52:03;-5.00;99.90
18175;DHT22;9212;50.894;16.714;2022-12-18T03:54:31;-4.90;99.90
18175;DHT22;9212;50.894;16.714;2022-12-18T03:57:04;-4.90;99.90
18175;DHT22;9212;50.894;16.714;2022-12-18T03:59:35;-5.30;99.90
18175;DHT22;9212;50.894;16.714;2022-12-18T04:02:05;-4.90;99.90
18175;DHT22;9212;50.894;16.714;2022-12-18T04:04:34;-5.00;99.90
18175;DHT22;9212;50.894;16.714;2022-12-18T04:07:02;-5.00;99.90
18175;DHT22;9212;50.894;16.714;2022-12-18T04:09:30;-5.00;99.90
18175;DHT22;9212;50.894;16.714;2022-12-18T04:11:58;-5.10;99.90
18175;DHT22;9212;50.894;16.714;2022-12-18T04:14:25;-5.10;99.90
18175;DHT22;9212;50.894;16.714;2022-12-18T04:16:54;-4.50;99.90
18175;DHT22;9212;50.894;16.714;2022-12-18T04:19:21;-5.20;99.90
18175;DHT22;9212;50.894;16.714;2022-12-18T04:21:48;-5.20;99.90
18175;DHT22;9212;50.894;16.714;2022-12-18T04:24:15;-5.20;99.90
18175;DHT22;9212;50.894;16.714;2022-12-18T04:26:42;-5.20;99.90
18175;DHT22;9212;50.894;16.714;2022-12-18T04:29:09;-5.30;99.90
18175;DHT22;9212;50.894;16.714;2022-12-18T04:34:05;-5.20;99.90
18175;DHT22;9212;50.894;16.714;2022-12-18T04:38:59;-5.20;99.90
18175;DHT22;9212;50.894;16.714;2022-12-18T04:41:26;-5.30;99.90
18175;DHT22;9212;50.894;16.714;2022-12-18T04:43:53;-5.20;99.90
18175;DHT22;9212;50.894;16.714;2022-12-18T04:46:20;-5.20;99.90
18175;DHT22;9212;50.894;16.714;2022-12-18T04:48:47;-5.30;99.90
18175;DHT22;9212;50.894;16.714;2022-12-18T04:51:16;-4.90;99.90
18175;DHT22;9212;50.894;16.714;2022-12-18T04:53:43;-5.40;99.90
18175;DHT22;9212;50.894;16.714;2022-12-18T04:56:12;-5.10;99.90
18175;DHT22;9212;50.894;16.714;2022-12-18T04:58:41;-5.20;99.90
18175;DHT22;9212;50.894;16.714;2022-12-18T05:01:09;-6.30;99.90
18175;DHT22;9212;50.894;16.714;2022-12-18T05:03:37;-5.40;99.90
18175;DHT22;9212;50.894;16.714;2022-12-18T05:06:05;-5.30;99.90
18175;DHT22;9212;50.894;16.714;2022-12-18T05:08:33;-5.40;99.90
18175;DHT22;9212;50.894;16.714;2022-12-18T05:11:01;-5.50;99.90
18175;DHT22;9212;50.894;16.714;2022-12-18T05:15:56;-5.60;99.90
18175;DHT22;9212;50.894;16.714;2022-12-18T05:18:23;-5.60;99.90
18175;DHT22;9212;50.894;16.714;2022-12-18T05:20:51;-5.60;99.90
18175;DHT22;9212;50.894;16.714;2022-12-18T05:23:18;-5.60;99.90
18175;DHT22;9212;50.894;16.714;2022-12-18T05:25:50;-5.60;99.90
18175;DHT22;9212;50.894;16.714;2022-12-18T05:28:18;-5.80;99.90
18175;DHT22;9212;50.894;16.714;2022-12-18T05:30:48;-5.80;99.90
18175;DHT22;9212;50.894;16.714;2022-12-18T05:33:16;-5.90;99.90
18175;DHT22;9212;50.894;16.714;2022-12-18T05:35:43;-6.10;99.90
18175;DHT22;9212;50.894;16.714;2022-12-18T05:38:10;-6.20;99.90
18175;DHT22;9212;50.894;16.714;2022-12-18T05:40:37;-6.30;99.90
18175;DHT22;9212;50.894;16.714;2022-12-18T05:43:10;-6.70;99.90
18175;DHT22;9212;50.894;16.714;2022-12-18T05:45:37;-6.60;99.90
18175;DHT22;9212;50.894;16.714;2022-12-18T05:48:05;-6.70;99.90
18175;DHT22;9212;50.894;16.714;2022-12-18T05:50:34;-6.80;99.90
18175;DHT22;9212;50.894;16.714;2022-12-18T05:53:01;-6.40;99.90
18175;DHT22;9212;50.894;16.714;2022-12-18T05:55:28;-8.90;99.90
18175;DHT22;9212;50.894;16.714;2022-12-18T05:57:55;-7.20;99.90
18175;DHT22;9212;50.894;16.714;2022-12-18T06:00:24;-7.90;99.90
18175;DHT22;9212;50.894;16.714;2022-12-18T06:05:18;-7.40;99.90
18175;DHT22;9212;50.894;16.714;2022-12-18T06:10:12;-7.40;99.90
18175;DHT22;9212;50.894;16.714;2022-12-18T06:12:39;-7.40;99.90
18175;DHT22;9212;50.894;16.714;2022-12-18T06:15:07;-6.80;99.90
18175;DHT22;9212;50.894;16.714;2022-12-18T06:17:36;-7.40;99.90
18175;DHT22;9212;50.894;16.714;2022-12-18T06:20:04;-7.50;99.90
18175;DHT22;9212;50.894;16.714;2022-12-18T06:25:00;-7.30;99.90
18175;DHT22;9212;50.894;16.714;2022-12-18T06:27:27;-7.80;99.90
18175;DHT22;9212;50.894;16.714;2022-12-18T06:29:54;-7.40;99.90
18175;DHT22;9212;50.894;16.714;2022-12-18T06:34:50;-7.30;99.90
18175;DHT22;9212;50.894;16.714;2022-12-18T06:37:17;-7.20;99.90
18175;DHT22;9212;50.894;16.714;2022-12-18T06:39:44;-7.20;99.90
18175;DHT22;9212;50.894;16.714;2022-12-18T06:42:11;-7.00;99.90
18175;DHT22;9212;50.894;16.714;2022-12-18T06:44:38;-7.50;99.90
18175;DHT22;9212;50.894;16.714;2022-12-18T06:49:33;-6.00;99.90
18175;DHT22;9212;50.894;16.714;2022-12-18T06:52:01;-7.00;99.90
18175;DHT22;9212;50.894;16.714;2022-12-18T06:54:28;-7.00;99.90
18175;DHT22;9212;50.894;16.714;2022-12-18T06:56:55;-7.00;99.90
18175;DHT22;9212;50.894;16.714;2022-12-18T06:59:22;-7.00;99.90
18175;DHT22;9212;50.894;16.714;2022-12-18T07:04:17;-6.90;99.90
18175;DHT22;9212;50.894;16.714;2022-12-18T07:06:44;-6.80;99.90
18175;DHT22;9212;50.894;16.714;2022-12-18T07:09:12;-7.30;99.90
18175;DHT22;9212;50.894;16.714;2022-12-18T07:11:39;-6.80;99.90
18175;DHT22;9212;50.894;16.714;2022-12-18T07:14:06;-5.70;99.90
18175;DHT22;9212;50.894;16.714;2022-12-18T07:16:33;-6.60;99.90
18175;DHT22;9212;50.894;16.714;2022-12-18T07:19:00;-6.70;99.90
18175;DHT22;9212;50.894;16.714;2022-12-18T07:21:27;-6.70;99.90
18175;DHT22;9212;50.894;16.714;2022-12-18T07:23:54;-6.50;99.90
18175;DHT22;9212;50.894;16.714;2022-12-18T07:26:23;-6.40;99.90
18175;DHT22;9212;50.894;16.714;2022-12-18T07:28:50;-6.70;99.90
18175;DHT22;9212;50.894;16.714;2022-12-18T07:31:19;-6.10;99.90
18175;DHT22;9212;50.894;16.714;2022-12-18T07:33:46;-5.50;99.90
18175;DHT22;9212;50.894;16.714;2022-12-18T07:36:14;-6.20;99.90
18175;DHT22;9212;50.894;16.714;2022-12-18T07:38:41;-6.10;99.90
18175;DHT22;9212;50.894;16.714;2022-12-18T07:41:10;-6.10;99.90
18175;DHT22;9212;50.894;16.714;2022-12-18T07:43:40;-6.10;99.90
18175;DHT22;9212;50.894;16.714;2022-12-18T07:46:07;-6.00;99.90
18175;DHT22;9212;50.894;16.714;2022-12-18T07:51:04;-6.00;99.90
18175;DHT22;9212;50.894;16.714;2022-12-18T07:53:32;-6.00;99.90
18175;DHT22;9212;50.894;16.714;2022-12-18T07:56:01;-5.80;99.90
18175;DHT22;9212;50.894;16.714;2022-12-18T07:58:29;-5.40;99.90
18175;DHT22;9212;50.894;16.714;2022-12-18T08:01:04;-5.20;99.90
18175;DHT22;9212;50.894;16.714;2022-12-18T08:03:31;-5.50;99.90
18175;DHT22;9212;50.894;16.714;2022-12-18T08:06:00;-5.50;99.90
18175;DHT22;9212;50.894;16.714;2022-12-18T08:10:54;-6.80;99.90
18175;DHT22;9212;50.894;16.714;2022-12-18T08:13:22;-5.90;99.90
18175;DHT22;9212;50.894;16.714;2022-12-18T08:15:55;-4.80;99.90
18175;DHT22;9212;50.894;16.714;2022-12-18T08:18:25;-5.90;99.90
18175;DHT22;9212;50.894;16.714;2022-12-18T08:20:52;-6.10;99.90
18175;DHT22;9212;50.894;16.714;2022-12-18T08:23:19;-7.90;99.90
18175;DHT22;9212;50.894;16.714;2022-12-18T08:28:13;-6.00;99.90
18175;DHT22;9212;50.894;16.714;2022-12-18T08:33:08;-5.60;99.90
18175;DHT22;9212;50.894;16.714;2022-12-18T08:35:36;-6.20;99.90
18175;DHT22;9212;50.894;16.714;2022-12-18T08:38:04;-7.10;99.90
18175;DHT22;9212;50.894;16.714;2022-12-18T08:40:31;-6.50;99.90
18175;DHT22;9212;50.894;16.714;2022-12-18T08:48:10;-6.60;99.90
18175;DHT22;9212;50.894;16.714;2022-12-18T08:50:38;-6.50;99.90
18175;DHT22;9212;50.894;16.714;2022-12-18T08:58:00;-5.90;99.90
18175;DHT22;9212;50.894;16.714;2022-12-18T09:00:27;-6.80;99.90
18175;DHT22;9212;50.894;16.714;2022-12-18T09:05:21;-5.90;99.90
18175;DHT22;9212;50.894;16.714;2022-12-18T09:07:50;-5.90;99.90
18175;DHT22;9212;50.894;16.714;2022-12-18T09:10:17;-5.80;99.90
18175;DHT22;9212;50.894;16.714;2022-12-18T09:12:44;-5.60;99.90
18175;DHT22;9212;50.894;16.714;2022-12-18T09:15:11;-5.80;99.90
18175;DHT22;9212;50.894;16.714;2022-12-18T09:17:38;-6.70;99.90
18175;DHT22;9212;50.894;16.714;2022-12-18T09:20:06;-5.70;99.90
18175;DHT22;9212;50.894;16.714;2022-12-18T09:25:03;-5.40;99.90
18175;DHT22;9212;50.894;16.714;2022-12-18T09:27:32;-5.40;99.90
18175;DHT22;9212;50.894;16.714;2022-12-18T09:30:00;-5.40;99.90
18175;DHT22;9212;50.894;16.714;2022-12-18T09:32:27;-5.20;99.90
18175;DHT22;9212;50.894;16.714;2022-12-18T09:34:54;-5.10;99.90
18175;DHT22;9212;50.894;16.714;2022-12-18T09:37:21;-4.90;99.90
18175;DHT22;9212;50.894;16.714;2022-12-18T09:39:48;-4.80;99.90
18175;DHT22;9212;50.894;16.714;2022-12-18T09:42:20;-5.00;99.90
18175;DHT22;9212;50.894;16.714;2022-12-18T09:44:51;-4.60;99.90
18175;DHT22;9212;50.894;16.714;2022-12-18T09:47:21;-4.80;99.90
18175;DHT22;9212;50.894;16.714;2022-12-18T09:49:53;-4.70;99.90
18175;DHT22;9212;50.894;16.714;2022-12-18T09:52:25;-4.50;99.90
18175;DHT22;9212;50.894;16.714;2022-12-18T09:54:56;-4.60;99.90
18175;DHT22;9212;50.894;16.714;2022-12-18T09:57:28;-4.60;99.90
18175;DHT22;9212;50.894;16.714;2022-12-18T09:59:59;-4.70;99.90
18175;DHT22;9212;50.894;16.714;2022-12-18T10:02:30;-4.50;99.90
18175;DHT22;9212;50.894;16.714;2022-12-18T10:05:10;-4.70;99.90
18175;DHT22;9212;50.894;16.714;2022-12-18T10:07:49;-4.50;99.90
18175;DHT22;9212;50.894;16.714;2022-12-18T10:10:27;-4.40;99.90
18175;DHT22;9212;50.894;16.714;2022-12-18T10:13:06;-4.20;99.90
18175;DHT22;9212;50.894;16.714;2022-12-18T10:15:39;-4.20;99.90
18175;DHT22;9212;50.894;16.714;2022-12-18T10:18:22;-5.10;99.90
18175;DHT22;9212;50.894;16.714;2022-12-18T10:20:55;-4.20;99.90
18175;DHT22;9212;50.894;16.714;2022-12-18T10:23:28;-4.00;99.90
18175;DHT22;9212;50.894;16.714;2022-12-18T10:26:03;-3.70;99.90
18175;DHT22;9212;50.894;16.714;2022-12-18T10:28:33;-3.60;99.90
18175;DHT22;9212;50.894;16.714;2022-12-18T10:31:01;-3.30;99.90
18175;DHT22;9212;50.894;16.714;2022-12-18T10:33:30;-3.40;99.90
18175;DHT22;9212;50.894;16.714;2022-12-18T10:35:59;-3.00;99.90
18175;DHT22;9212;50.894;16.714;2022-12-18T10:38:28;-2.90;99.90
18175;DHT22;9212;50.894;16.714;2022-12-18T10:40:57;-2.60;99.90
18175;DHT22;9212;50.894;16.714;2022-12-18T10:43:27;-2.40;99.90
18175;DHT22;9212;50.894;16.714;2022-12-18T10:46:07;-2.50;99.90
18175;DHT22;9212;50.894;16.714;2022-12-18T10:48:47;-2.20;99.90
18175;DHT22;9212;50.894;16.714;2022-12-18T10:51:21;-3.20;99.90
18175;DHT22;9212;50.894;16.714;2022-12-18T10:53:54;-2.40;99.90
18175;DHT22;9212;50.894;16.714;2022-12-18T10:56:23;-2.80;99.90
18175;DHT22;9212;50.894;16.714;2022-12-18T10:58:57;-2.70;99.90
18175;DHT22;9212;50.894;16.714;2022-12-18T11:01:25;-2.40;99.90
18175;DHT22;9212;50.894;16.714;2022-12-18T11:04:00;-2.50;99.90
18175;DHT22;9212;50.894;16.714;2022-12-18T11:06:28;-2.30;99.90
18175;DHT22;9212;50.894;16.714;2022-12-18T11:09:00;-1.50;99.90
18175;DHT22;9212;50.894;16.714;2022-12-18T11:11:28;-1.90;99.90
18175;DHT22;9212;50.894;16.714;2022-12-18T11:14:00;-2.10;99.90
18175;DHT22;9212;50.894;16.714;2022-12-18T11:16:32;-1.90;99.90
18175;DHT22;9212;50.894;16.714;2022-12-18T11:19:13;-2.30;99.90
18175;DHT22;9212;50.894;16.714;2022-12-18T11:21:42;-1.80;99.90
18175;DHT22;9212;50.894;16.714;2022-12-18T11:24:20;-2.30;99.90
18175;DHT22;9212;50.894;16.714;2022-12-18T11:26:48;-1.50;99.90
18175;DHT22;9212;50.894;16.714;2022-12-18T11:29:17;-1.60;99.90
18175;DHT22;9212;50.894;16.714;2022-12-18T11:31:46;-1.50;99.90
18175;DHT22;9212;50.894;16.714;2022-12-18T11:34:18;-1.40;99.90
18175;DHT22;9212;50.894;16.714;2022-12-18T11:36:47;-0.90;99.90
18175;DHT22;9212;50.894;16.714;2022-12-18T11:39:18;-1.20;99.90
18175;DHT22;9212;50.894;16.714;2022-12-18T11:41:50;-2.00;99.90
18175;DHT22;9212;50.894;16.714;2022-12-18T11:44:42;-2.60;99.90
18175;DHT22;9212;50.894;16.714;2022-12-18T11:47:21;-2.70;99.90
18175;DHT22;9212;50.894;16.714;2022-12-18T11:49:49;-2.90;99.90
18175;DHT22;9212;50.894;16.714;2022-12-18T11:52:19;-2.80;99.90
18175;DHT22;9212;50.894;16.714;2022-12-18T11:54:51;-2.90;99.90
18175;DHT22;9212;50.894;16.714;2022-12-18T11:57:29;-2.80;99.90
18175;DHT22;9212;50.894;16.714;2022-12-18T12:00:04;-2.60;99.90
18175;DHT22;9212;50.894;16.714;2022-12-18T12:03:20;-2.90;99.90
18175;DHT22;9212;50.894;16.714;2022-12-18T12:05:57;-2.40;99.90
18175;DHT22;9212;50.894;16.714;2022-12-18T12:08:34;-2.30;99.90
18175;DHT22;9212;50.894;16.714;2022-12-18T12:11:12;-2.50;99.90
18175;DHT22;9212;50.894;16.714;2022-12-18T12:14:01;-2.30;99.90
18175;DHT22;9212;50.894;16.714;2022-12-18T12:16:37;-2.50;99.90
18175;DHT22;9212;50.894;16.714;2022-12-18T12:19:22;-3.10;99.90
18175;DHT22;9212;50.894;16.714;2022-12-18T12:21:58;-2.30;99.90
18175;DHT22;9212;50.894;16.714;2022-12-18T12:24:37;-2.40;99.90
18175;DHT22;9212;50.894;16.714;2022-12-18T12:27:19;-2.50;99.90
18175;DHT22;9212;50.894;16.714;2022-12-18T12:29:59;-3.30;99.90
18175;DHT22;9212;50.894;16.714;2022-12-18T12:32:42;-2.50;99.90
18175;DHT22;9212;50.894;16.714;2022-12-18T12:35:22;-3.20;99.90
18175;DHT22;9212;50.894;16.714;2022-12-18T12:38:00;-2.80;99.90
18175;DHT22;9212;50.894;16.714;2022-12-18T12:40:30;-3.20;99.90
18175;DHT22;9212;50.894;16.714;2022-12-18T12:43:01;-3.10;99.90
18175;DHT22;9212;50.894;16.714;2022-12-18T12:45:42;-2.90;99.90
18175;DHT22;9212;50.894;16.714;2022-12-18T12:48:19;-2.80;99.90
18175;DHT22;9212;50.894;16.714;2022-12-18T12:50:49;-3.30;99.90
18175;DHT22;9212;50.894;16.714;2022-12-18T12:53:23;-3.30;99.90
18175;DHT22;9212;50.894;16.714;2022-12-18T12:55:53;-3.30;99.90
18175;DHT22;9212;50.894;16.714;2022-12-18T12:58:29;-3.20;99.90
18175;DHT22;9212;50.894;16.714;2022-12-18T13:01:06;-3.20;99.90
18175;DHT22;9212;50.894;16.714;2022-12-18T13:03:42;-3.40;99.90
18175;DHT22;9212;50.894;16.714;2022-12-18T13:06:18;-3.50;99.90
18175;DHT22;9212;50.894;16.714;2022-12-18T13:08:55;-3.90;99.90
18175;DHT22;9212;50.894;16.714;2022-12-18T13:11:39;-4.10;99.90
18175;DHT22;9212;50.894;16.714;2022-12-18T13:14:28;-4.70;99.90
18175;DHT22;9212;50.894;16.714;2022-12-18T13:19:52;-4.30;99.90
18175;DHT22;9212;50.894;16.714;2022-12-18T13:22:34;-4.60;99.90
18175;DHT22;9212;50.894;16.714;2022-12-18T13:25:02;-4.50;99.90
18175;DHT22;9212;50.894;16.714;2022-12-18T13:27:51;-4.50;99.90
18175;DHT22;9212;50.894;16.714;2022-12-18T13:30:53;-4.50;99.90
18175;DHT22;9212;50.894;16.714;2022-12-18T13:33:38;-4.50;99.90
18175;DHT22;9212;50.894;16.714;2022-12-18T13:36:13;-4.50;99.90
18175;DHT22;9212;50.894;16.714;2022-12-18T13:38:42;-4.60;99.90
18175;DHT22;9212;50.894;16.714;2022-12-18T13:41:24;-4.60;99.90
18175;DHT22;9212;50.894;16.714;2022-12-18T13:43:53;-4.70;99.90
18175;DHT22;9212;50.894;16.714;2022-12-18T13:46:27;-4.50;99.90
18175;DHT22;9212;50.894;16.714;2022-12-18T13:49:00;-4.70;99.90
18175;DHT22;9212;50.894;16.714;2022-12-18T13:51:29;-4.70;99.90
18175;DHT22;9212;50.894;16.714;2022-12-18T13:54:01;-4.70;99.90
18175;DHT22;9212;50.894;16.714;2022-12-18T13:56:31;-4.80;99.90
18175;DHT22;9212;50.894;16.714;2022-12-18T13:59:17;-4.80;99.90
18175;DHT22;9212;50.894;16.714;2022-12-18T14:01:48;-5.10;99.90
18175;DHT22;9212;50.894;16.714;2022-12-18T14:04:34;-5.10;99.90
18175;DHT22;9212;50.894;16.714;2022-12-18T14:07:03;-5.20;99.90
18175;DHT22;9212;50.894;16.714;2022-12-18T14:09:36;-5.10;99.90
18175;DHT22;9212;50.894;16.714;2022-12-18T14:12:04;-5.40;99.90
18175;DHT22;9212;50.894;16.714;2022-12-18T14:14:51;-5.40;99.90
18175;DHT22;9212;50.894;16.714;2022-12-18T14:17:19;-5.80;99.90
18175;DHT22;9212;50.894;16.714;2022-12-18T14:19:48;-6.00;99.90
18175;DHT22;9212;50.894;16.714;2022-12-18T14:22:17;-5.40;99.90
18175;DHT22;9212;50.894;16.714;2022-12-18T14:24:47;-6.40;99.90
18175;DHT22;9212;50.894;16.714;2022-12-18T14:27:22;-6.60;99.90
18175;DHT22;9212;50.894;16.714;2022-12-18T14:29:50;-6.70;99.90
18175;DHT22;9212;50.894;16.714;2022-12-18T14:32:19;-6.70;99.90
18175;DHT22;9212;50.894;16.714;2022-12-18T14:34:47;-7.10;99.90
18175;DHT22;9212;50.894;16.714;2022-12-18T14:37:16;-7.20;99.90
18175;DHT22;9212;50.894;16.714;2022-12-18T14:39:55;-7.30;99.90
18175;DHT22;9212;50.894;16.714;2022-12-18T14:47:53;-8.50;99.90
18175;DHT22;9212;50.894;16.714;2022-12-18T14:52:48;-7.30;99.90
18175;DHT22;9212;50.894;16.714;2022-12-18T14:55:19;-8.10;99.90
18175;DHT22;9212;50.894;16.714;2022-12-18T14:57:50;-8.30;99.90
18175;DHT22;9212;50.894;16.714;2022-12-18T15:00:20;-8.40;99.90
18175;DHT22;9212;50.894;16.714;2022-12-18T15:02:49;-8.80;99.90
18175;DHT22;9212;50.894;16.714;2022-12-18T15:05:25;-9.00;99.90
18175;DHT22;9212;50.894;16.714;2022-12-18T15:10:24;-9.30;99.90
18175;DHT22;9212;50.894;16.714;2022-12-18T15:13:08;-8.50;99.90
18175;DHT22;9212;50.894;16.714;2022-12-18T15:15:46;-9.60;99.90
18175;DHT22;9212;50.894;16.714;2022-12-18T15:20:44;-6.10;99.90
18175;DHT22;9212;50.894;16.714;2022-12-18T15:23:18;-9.80;99.90
18175;DHT22;9212;50.894;16.714;2022-12-18T15:25:54;-10.00;99.90
18175;DHT22;9212;50.894;16.714;2022-12-18T15:28:24;-10.20;99.90
18175;DHT22;9212;50.894;16.714;2022-12-18T15:31:05;-10.20;99.90
18175;DHT22;9212;50.894;16.714;2022-12-18T15:33:35;-13.20;99.90
18175;DHT22;9212;50.894;16.714;2022-12-18T15:36:08;-11.10;99.90
18175;DHT22;9212;50.894;16.714;2022-12-18T15:41:04;-10.70;99.90
18175;DHT22;9212;50.894;16.714;2022-12-18T15:43:37;-11.20;99.90
18175;DHT22;9212;50.894;16.714;2022-12-18T15:46:05;-10.80;99.90
18175;DHT22;9212;50.894;16.714;2022-12-18T15:48:34;-10.90;99.90
18175;DHT22;9212;50.894;16.714;2022-12-18T15:53:31;-10.70;99.90
18175;DHT22;9212;50.894;16.714;2022-12-18T15:55:59;-11.00;99.90
18175;DHT22;9212;50.894;16.714;2022-12-18T15:58:45;-11.10;99.90
18175;DHT22;9212;50.894;16.714;2022-12-18T16:01:13;-11.30;99.90
18175;DHT22;9212;50.894;16.714;2022-12-18T16:06:09;-11.40;99.90
18175;DHT22;9212;50.894;16.714;2022-12-18T16:11:05;-11.30;99.90
18175;DHT22;9212;50.894;16.714;2022-12-18T16:18:34;-11.60;99.90
18175;DHT22;9212;50.894;16.714;2022-12-18T16:21:03;-11.60;99.90
18175;DHT22;9212;50.894;16.714;2022-12-18T16:28:30;-11.80;99.90
18175;DHT22;9212;50.894;16.714;2022-12-18T16:30:57;-11.80;99.90
18175;DHT22;9212;50.894;16.714;2022-12-18T16:33:25;-11.80;99.90
18175;DHT22;9212;50.894;16.714;2022-12-18T16:40:47;-10.50;99.90
18175;DHT22;9212;50.894;16.714;2022-12-18T16:45:58;-12.00;99.90
18175;DHT22;9212;50.894;16.714;2022-12-18T16:48:27;-11.90;99.90
18175;DHT22;9212;50.894;16.714;2022-12-18T16:51:00;-12.10;99.90
18175;DHT22;9212;50.894;16.714;2022-12-18T16:55:55;-12.10;99.90
18175;DHT22;9212;50.894;16.714;2022-12-18T16:58:22;-12.00;99.90
18175;DHT22;9212;50.894;16.714;2022-12-18T17:00:51;-12.10;99.90
18175;DHT22;9212;50.894;16.714;2022-12-18T17:08:22;-12.50;99.90
18175;DHT22;9212;50.894;16.714;2022-12-18T17:13:18;-12.50;99.90
18175;DHT22;9212;50.894;16.714;2022-12-18T17:23:11;-12.50;99.90
18175;DHT22;9212;50.894;16.714;2022-12-18T17:25:39;-12.40;99.90
18175;DHT22;9212;50.894;16.714;2022-12-18T17:28:06;-12.80;99.90
18175;DHT22;9212;50.894;16.714;2022-12-18T17:30:33;-12.70;99.90
18175;DHT22;9212;50.894;16.714;2022-12-18T17:33:02;-10.50;99.90
18175;DHT22;9212;50.894;16.714;2022-12-18T17:35:29;-12.70;99.90
18175;DHT22;9212;50.894;16.714;2022-12-18T17:37:56;-12.70;99.90
18175;DHT22;9212;50.894;16.714;2022-12-18T17:40:25;-13.00;99.90
18175;DHT22;9212;50.894;16.714;2022-12-18T17:45:21;-12.80;99.90
18175;DHT22;9212;50.894;16.714;2022-12-18T17:55:10;-12.80;99.90
18175;DHT22;9212;50.894;16.714;2022-12-18T17:57:39;-12.60;99.90
18175;DHT22;9212;50.894;16.714;2022-12-18T18:00:07;-12.70;99.90
18175;DHT22;9212;50.894;16.714;2022-12-18T18:05:06;-12.70;99.90
18175;DHT22;9212;50.894;16.714;2022-12-18T18:07:34;-12.70;99.90
18175;DHT22;9212;50.894;16.714;2022-12-18T18:15:14;-13.20;99.90
18175;DHT22;9212;50.894;16.714;2022-12-18T18:17:41;-13.00;99.90
18175;DHT22;9212;50.894;16.714;2022-12-18T18:20:09;-12.70;99.90
18175;DHT22;9212;50.894;16.714;2022-12-18T18:25:04;-12.80;99.90